sensor_id;sensor_type;location;lat;lon;timestamp;pressure;altitude;pressure_sealevel;temperature;humidity
12475;BME280;6302;42.624;23.334;2024-03-02T00:00:43;92714.13;;;7.59;100.00
12475;BME280;6302;42.624;23.334;2024-03-02T00:03:12;92717.16;;;7.54;100.00
12475;BME280;6302;42.624;23.334;2024-03-02T00:05:39;92718.63;;;7.62;100.00
12475;BME280;6302;42.624;23.334;2024-03-02T00:08:07;92715.63;;;7.60;100.00
12475;BME280;6302;42.624;23.334;2024-03-02T00:10:36;92720.50;;;7.65;100.00
12475;BME280;6302;42.624;23.334;2024-03-02T00:13:06;92712.19;;;7.63;100.00
12475;BME280;6302;42.624;23.334;2024-03-02T00:15:41;92722.03;;;7.59;100.00
12475;BME280;6302;42.624;23.334;2024-03-02T00:18:11;92707.69;;;7.67;100.00
12475;BME280;6302;42.624;23.334;2024-03-02T00:20:38;92707.38;;;7.58;100.00
12475;BME280;6302;42.624;23.334;2024-03-02T00:23:06;92706.66;;;7.50;100.00
12475;BME280;6302;42.624;23.334;2024-03-02T00:25:40;92708.13;;;7.51;100.00
12475;BME280;6302;42.624;23.334;2024-03-02T00:28:14;92702.16;;;7.47;100.00
12475;BME280;6302;42.624;23.334;2024-03-02T00:30:55;92694.25;;;7.44;100.00
12475;BME280;6302;42.624;23.334;2024-03-02T00:33:23;92697.63;;;7.44;100.00
12475;BME280;6302;42.624;23.334;2024-03-02T00:35:50;92687.91;;;7.38;100.00
12475;BME280;6302;42.624;23.334;2024-03-02T00:38:17;92689.44;;;7.32;100.00
12475;BME280;6302;42.624;23.334;2024-03-02T00:40:44;92695.75;;;7.45;100.00
12475;BME280;6302;42.624;23.334;2024-03-02T00:46:06;92690.13;;;7.43;100.00
12475;BME280;6302;42.624;23.334;2024-03-02T00:48:33;92687.84;;;7.45;100.00
12475;BME280;6302;42.624;23.334;2024-03-02T00:51:01;92652.94;;;7.30;100.00
12475;BME280;6302;42.624;23.334;2024-03-02T00:53:30;92669.84;;;7.33;100.00
12475;BME280;6302;42.624;23.334;2024-03-02T00:55:57;92690.84;;;7.50;100.00
12475;BME280;6302;42.624;23.334;2024-03-02T00:58:26;92692.31;;;7.55;100.00
12475;BME280;6302;42.624;23.334;2024-03-02T01:00:53;92691.16;;;7.56;100.00
12475;BME280;6302;42.624;23.334;2024-03-02T01:03:20;92676.53;;;7.48;100.00
12475;BME280;6302;42.624;23.334;2024-03-02T01:05:47;92692.25;;;7.62;100.00
12475;BME280;6302;42.624;23.334;2024-03-02T01:08:14;92691.50;;;7.65;100.00
12475;BME280;6302;42.624;23.334;2024-03-02T01:10:41;92682.06;;;7.67;100.00
12475;BME280;6302;42.624;23.334;2024-03-02T01:13:08;92689.53;;;7.76;100.00
12475;BME280;6302;42.624;23.334;2024-03-02T01:15:36;92683.13;;;7.77;100.00
12475;BME280;6302;42.624;23.334;2024-03-02T01:18:04;92661.34;;;7.66;100.00
12475;BME280;6302;42.624;23.334;2024-03-02T01:20:31;92677.72;;;7.91;100.00
12475;BME280;6302;42.624;23.334;2024-03-02T01:22:57;92675.50;;;7.86;100.00
12475;BME280;6302;42.624;23.334;2024-03-02T01:25:24;92661.91;;;7.87;100.00
12475;BME280;6302;42.624;23.334;2024-03-02T01:27:51;92668.69;;;7.88;100.00
12475;BME280;6302;42.624;23.334;2024-03-02T01:30:18;92674.75;;;7.85;100.00
12475;BME280;6302;42.624;23.334;2024-03-02T01:32:46;92667.19;;;7.87;100.00
12475;BME280;6302;42.624;23.334;2024-03-02T01:35:13;92673.97;;;7.92;100.00
12475;BME280;6302;42.624;23.334;2024-03-02T01:37:40;92637.59;;;7.69;100.00
12475;BME280;6302;42.624;23.334;2024-03-02T01:40:07;92666.34;;;7.98;100.00
12475;BME280;6302;42.624;23.334;2024-03-02T01:42:35;92655.16;;;7.86;100.00
12475;BME280;6302;42.624;23.334;2024-03-02T01:45:03;92664.13;;;7.96;100.00
12475;BME280;6302;42.624;23.334;2024-03-02T01:47:30;92661.22;;;7.83;100.00
12475;BME280;6302;42.624;23.334;2024-03-02T01:49:59;92661.22;;;7.83;100.00
12475;BME280;6302;42.624;23.334;2024-03-02T01:52:26;92658.56;;;7.87;100.00
12475;BME280;6302;42.624;23.334;2024-03-02T01:54:53;92665.63;;;7.97;100.00
12475;BME280;6302;42.624;23.334;2024-03-02T01:57:20;92663.34;;;7.99;100.00
12475;BME280;6302;42.624;23.334;2024-03-02T01:59:47;92657.72;;;7.97;100.00
12475;BME280;6302;42.624;23.334;2024-03-02T02:02:14;92664.84;;;8.00;100.00
12475;BME280;6302;42.624;23.334;2024-03-02T02:04:41;92660.38;;;7.94;100.00
12475;BME280;6302;42.624;23.334;2024-03-02T02:07:09;92668.63;;;7.99;100.00
12475;BME280;6302;42.624;23.334;2024-03-02T02:09:36;92671.97;;;8.03;100.00
12475;BME280;6302;42.624;23.334;2024-03-02T02:12:03;92670.44;;;8.06;100.00
12475;BME280;6302;42.624;23.334;2024-03-02T02:14:32;92657.25;;;8.06;100.00
12475;BME280;6302;42.624;23.334;2024-03-02T02:16:59;92667.38;;;8.11;100.00
12475;BME280;6302;42.624;23.334;2024-03-02T02:19:25;92664.00;;;8.10;100.00
12475;BME280;6302;42.624;23.334;2024-03-02T02:21:53;92653.00;;;8.15;100.00
12475;BME280;6302;42.624;23.334;2024-03-02T02:24:20;92657.16;;;8.16;100.00
12475;BME280;6302;42.624;23.334;2024-03-02T02:26:47;92656.75;;;8.18;100.00
12475;BME280;6302;42.624;23.334;2024-03-02T02:29:14;92662.44;;;8.16;100.00
12475;BME280;6302;42.624;23.334;2024-03-02T02:31:41;92656.44;;;8.12;100.00
12475;BME280;6302;42.624;23.334;2024-03-02T02:34:08;92672.25;;;8.16;100.00
12475;BME280;6302;42.624;23.334;2024-03-02T02:36:37;92660.50;;;8.20;100.00
12475;BME280;6302;42.624;23.334;2024-03-02T02:39:08;92657.50;;;8.22;100.00
12475;BME280;6302;42.624;23.334;2024-03-02T02:41:37;92657.88;;;8.20;100.00
12475;BME280;6302;42.624;23.334;2024-03-02T02:44:04;92655.34;;;8.10;100.00
12475;BME280;6302;42.624;23.334;2024-03-02T02:46:31;92637.31;;;8.01;100.00
12475;BME280;6302;42.624;23.334;2024-03-02T02:48:58;92660.28;;;8.04;100.00
12475;BME280;6302;42.624;23.334;2024-03-02T02:51:24;92664.13;;;7.96;100.00
12475;BME280;6302;42.624;23.334;2024-03-02T02:53:51;92662.94;;;8.04;100.00
12475;BME280;6302;42.624;23.334;2024-03-02T02:56:20;92661.13;;;7.94;100.00
12475;BME280;6302;42.624;23.334;2024-03-02T02:58:47;92660.34;;;7.97;100.00
12475;BME280;6302;42.624;23.334;2024-03-02T03:01:14;92662.66;;;7.88;100.00
12475;BME280;6302;42.624;23.334;2024-03-02T03:03:42;92665.00;;;7.79;100.00
12475;BME280;6302;42.624;23.334;2024-03-02T03:06:09;92664.19;;;7.89;100.00
12475;BME280;6302;42.624;23.334;2024-03-02T03:08:36;92667.13;;;7.98;100.00
12475;BME280;6302;42.624;23.334;2024-03-02T03:11:03;92659.53;;;8.04;100.00
12475;BME280;6302;42.624;23.334;2024-03-02T03:13:31;92664.84;;;8.00;100.00
12475;BME280;6302;42.624;23.334;2024-03-02T03:15:58;92666.00;;;7.96;100.00
12475;BME280;6302;42.624;23.334;2024-03-02T03:18:25;92661.19;;;7.87;100.00
12475;BME280;6302;42.624;23.334;2024-03-02T03:20:52;92663.50;;;7.78;100.00
12475;BME280;6302;42.624;23.334;2024-03-02T03:23:18;92660.16;;;7.74;100.00
12475;BME280;6302;42.624;23.334;2024-03-02T03:25:46;92659.09;;;7.64;100.00
12475;BME280;6302;42.624;23.334;2024-03-02T03:28:12;92665.97;;;7.51;100.00
12475;BME280;6302;42.624;23.334;2024-03-02T03:30:41;92662.25;;;7.42;100.00
12475;BME280;6302;42.624;23.334;2024-03-02T03:33:08;92664.19;;;7.38;100.00
12475;BME280;6302;42.624;23.334;2024-03-02T03:35:35;92664.53;;;7.40;100.00
12475;BME280;6302;42.624;23.334;2024-03-02T03:38:03;92659.22;;;7.47;100.00
12475;BME280;6302;42.624;23.334;2024-03-02T03:40:30;92670.13;;;7.49;100.00
12475;BME280;6302;42.624;23.334;2024-03-02T03:42:56;92674.25;;;7.50;100.00
12475;BME280;6302;42.624;23.334;2024-03-02T03:45:25;92669.72;;;7.54;100.00
12475;BME280;6302;42.624;23.334;2024-03-02T03:47:53;92655.38;;;7.58;100.00
12475;BME280;6302;42.624;23.334;2024-03-02T03:50:20;92674.97;;;7.57;100.00
12475;BME280;6302;42.624;23.334;2024-03-02T03:52:47;92666.66;;;7.62;100.00
12475;BME280;6302;42.624;23.334;2024-03-02T03:55:13;92671.94;;;7.59;100.00
12475;BME280;6302;42.624;23.334;2024-03-02T03:57:40;92666.72;;;7.55;100.00
12475;BME280;6302;42.624;23.334;2024-03-02T04:00:08;92672.63;;;7.66;100.00
12475;BME280;6302;42.624;23.334;2024-03-02T04:02:36;92672.22;;;7.71;100.00
12475;BME280;6302;42.624;23.334;2024-03-02T04:05:05;92668.78;;;7.78;100.00
12475;BME280;6302;42.624;23.334;2024-03-02T04:07:35;92665.00;;;7.79;100.00
12475;BME280;6302;42.624;23.334;2024-03-02T04:10:07;92675.50;;;7.86;100.00
12475;BME280;6302;42.624;23.334;2024-03-02T04:12:35;92680.00;;;7.89;100.00
12475;BME280;6302;42.624;23.334;2024-03-02T04:15:02;92664.19;;;7.85;100.00
12475;BME280;6302;42.624;23.334;2024-03-02T04:17:31;92675.09;;;7.91;100.00
12475;BME280;6302;42.624;23.334;2024-03-02T04:19:57;92670.16;;;7.93;100.00
12475;BME280;6302;42.624;23.334;2024-03-02T04:22:27;92670.56;;;7.92;100.00
12475;BME280;6302;42.624;23.334;2024-03-02T04:24:54;92667.56;;;7.90;100.00
12475;BME280;6302;42.624;23.334;2024-03-02T04:27:21;92654.88;;;7.74;100.00
12475;BME280;6302;42.624;23.334;2024-03-02T04:29:47;92674.03;;;7.85;100.00
12475;BME280;6302;42.624;23.334;2024-03-02T04:32:15;92681.13;;;7.92;100.00
12475;BME280;6302;42.624;23.334;2024-03-02T04:34:42;92677.00;;;7.87;100.00
12475;BME280;6302;42.624;23.334;2024-03-02T04:37:10;92676.22;;;7.90;100.00
12475;BME280;6302;42.624;23.334;2024-03-02T04:39:38;92678.56;;;7.81;100.00
12475;BME280;6302;42.624;23.334;2024-03-02T04:42:05;92679.66;;;7.87;100.00
12475;BME280;6302;42.624;23.334;2024-03-02T04:44:32;92679.25;;;7.88;100.00
12475;BME280;6302;42.624;23.334;2024-03-02T04:46:59;92665.00;;;7.79;100.00
12475;BME280;6302;42.624;23.334;2024-03-02T04:49:25;92502.41;;;6.70;100.00
12475;BME280;6302;42.624;23.334;2024-03-02T04:51:52;92669.88;;;7.84;100.00
12475;BME280;6302;42.624;23.334;2024-03-02T04:54:19;92678.44;;;7.95;100.00
12475;BME280;6302;42.624;23.334;2024-03-02T04:56:47;92660.44;;;7.83;100.00
12475;BME280;6302;42.624;23.334;2024-03-02T04:59:16;92673.13;;;8.02;100.00
12475;BME280;6302;42.624;23.334;2024-03-02T05:01:43;92681.75;;;8.06;100.00
12475;BME280;6302;42.624;23.334;2024-03-02T05:04:10;92676.84;;;8.08;100.00
12475;BME280;6302;42.624;23.334;2024-03-02T05:06:38;92685.09;;;8.10;100.00
12475;BME280;6302;42.624;23.334;2024-03-02T05:09:05;92684.31;;;8.13;100.00
12475;BME280;6302;42.624;23.334;2024-03-02T05:11:32;92686.63;;;8.11;100.00
12475;BME280;6302;42.624;23.334;2024-03-02T05:14:32;92686.56;;;8.15;100.00
12475;BME280;6302;42.624;23.334;2024-03-02T05:16:59;92684.72;;;8.12;100.00
12475;BME280;6302;42.624;23.334;2024-03-02T05:19:26;92688.09;;;8.12;100.00
12475;BME280;6302;42.624;23.334;2024-03-02T05:21:52;92691.84;;;8.15;100.00
12475;BME280;6302;42.624;23.334;2024-03-02T05:24:20;92701.69;;;8.11;100.00
12475;BME280;6302;42.624;23.334;2024-03-02T05:26:46;92696.00;;;8.12;100.00
12475;BME280;6302;42.624;23.334;2024-03-02T05:29:13;92695.31;;;8.08;100.00
12475;BME280;6302;42.624;23.334;2024-03-02T05:31:41;92694.97;;;8.03;100.00
12475;BME280;6302;42.624;23.334;2024-03-02T05:34:08;92712.22;;;8.14;100.00
12475;BME280;6302;42.624;23.334;2024-03-02T05:36:34;92709.19;;;8.16;100.00
12475;BME280;6302;42.624;23.334;2024-03-02T05:39:02;92713.00;;;8.11;100.00
12475;BME280;6302;42.624;23.334;2024-03-02T05:41:30;92715.34;;;8.02;100.00
12475;BME280;6302;42.624;23.334;2024-03-02T05:43:57;92718.34;;;8.04;100.00
12475;BME280;6302;42.624;23.334;2024-03-02T05:46:24;92727.78;;;8.02;100.00
12475;BME280;6302;42.624;23.334;2024-03-02T05:48:52;92728.16;;;8.00;100.00
12475;BME280;6302;42.624;23.334;2024-03-02T05:51:18;92734.53;;;8.06;100.00
12475;BME280;6302;42.624;23.334;2024-03-02T05:53:47;92729.22;;;8.10;100.00
12475;BME280;6302;42.624;23.334;2024-03-02T05:56:14;92728.44;;;8.13;100.00
12475;BME280;6302;42.624;23.334;2024-03-02T05:58:41;92725.78;;;8.16;100.00
12475;BME280;6302;42.624;23.334;2024-03-02T06:01:23;92726.91;;;8.15;100.00
12475;BME280;6302;42.624;23.334;2024-03-02T06:03:55;92727.25;;;8.21;100.00
12475;BME280;6302;42.624;23.334;2024-03-02T06:06:22;92726.13;;;8.18;100.00
12475;BME280;6302;42.624;23.334;2024-03-02T06:08:48;92726.50;;;8.20;100.00
12475;BME280;6302;42.624;23.334;2024-03-02T06:11:15;92721.97;;;8.17;100.00
12475;BME280;6302;42.624;23.334;2024-03-02T06:13:42;92731.75;;;8.20;100.00
12475;BME280;6302;42.624;23.334;2024-03-02T06:16:09;92731.75;;;8.20;100.00
12475;BME280;6302;42.624;23.334;2024-03-02T06:18:36;92735.91;;;8.21;100.00
12475;BME280;6302;42.624;23.334;2024-03-02T06:21:04;92734.06;;;8.18;100.00
12475;BME280;6302;42.624;23.334;2024-03-02T06:23:31;92706.63;;;8.05;100.00
12475;BME280;6302;42.624;23.334;2024-03-02T06:25:58;92738.19;;;8.19;100.00
12475;BME280;6302;42.624;23.334;2024-03-02T06:28:24;92740.84;;;8.19;100.00
12475;BME280;6302;42.624;23.334;2024-03-02T06:30:51;92740.84;;;8.19;100.00
12475;BME280;6302;42.624;23.334;2024-03-02T06:33:19;92735.22;;;8.14;100.00
12475;BME280;6302;42.624;23.334;2024-03-02T06:35:45;92740.47;;;8.17;100.00
12475;BME280;6302;42.624;23.334;2024-03-02T06:38:14;92747.25;;;8.18;100.00
12475;BME280;6302;42.624;23.334;2024-03-02T06:40:40;92743.50;;;8.16;100.00
12475;BME280;6302;42.624;23.334;2024-03-02T06:43:07;92746.50;;;8.18;100.00
12475;BME280;6302;42.624;23.334;2024-03-02T06:45:34;92744.59;;;8.18;100.00
12475;BME280;6302;42.624;23.334;2024-03-02T06:48:00;92746.84;;;8.20;100.00
12475;BME280;6302;42.624;23.334;2024-03-02T06:50:27;92753.00;;;8.06;100.00
12475;BME280;6302;42.624;23.334;2024-03-02T06:52:54;92743.56;;;8.09;100.00
12475;BME280;6302;42.624;23.334;2024-03-02T06:55:25;92750.72;;;8.08;100.00
12475;BME280;6302;42.624;23.334;2024-03-02T06:57:52;92751.44;;;8.12;100.00
12475;BME280;6302;42.624;23.334;2024-03-02T07:00:19;92750.69;;;8.12;100.00
12475;BME280;6302;42.624;23.334;2024-03-02T07:02:46;92750.00;;;8.04;100.00
12475;BME280;6302;42.624;23.334;2024-03-02T07:05:13;92757.16;;;8.07;100.00
12475;BME280;6302;42.624;23.334;2024-03-02T07:07:40;92620.59;;;7.19;100.00
12475;BME280;6302;42.624;23.334;2024-03-02T07:10:07;92746.94;;;8.09;100.00
12475;BME280;6302;42.624;23.334;2024-03-02T07:12:35;92759.03;;;8.07;100.00
12475;BME280;6302;42.624;23.334;2024-03-02T07:15:02;92757.09;;;8.11;100.00
12475;BME280;6302;42.624;23.334;2024-03-02T07:17:54;92737.22;;;7.99;100.00
12475;BME280;6302;42.624;23.334;2024-03-02T07:20:21;92755.94;;;8.15;100.00
12475;BME280;6302;42.624;23.334;2024-03-02T07:22:48;92761.97;;;8.19;100.00
12475;BME280;6302;42.624;23.334;2024-03-02T07:25:14;92744.66;;;8.11;100.00
12475;BME280;6302;42.624;23.334;2024-03-02T07:27:42;92765.72;;;8.22;100.00
12475;BME280;6302;42.624;23.334;2024-03-02T07:30:13;92759.69;;;8.21;100.00
12475;BME280;6302;42.624;23.334;2024-03-02T07:32:41;92761.53;;;8.24;100.00
12475;BME280;6302;42.624;23.334;2024-03-02T07:35:11;92766.44;;;8.29;100.00
12475;BME280;6302;42.624;23.334;2024-03-02T07:37:38;92767.22;;;8.26;100.00
12475;BME280;6302;42.624;23.334;2024-03-02T07:40:05;92767.16;;;8.33;100.00
12475;BME280;6302;42.624;23.334;2024-03-02T07:42:34;92769.78;;;8.33;100.00
12475;BME280;6302;42.624;23.334;2024-03-02T07:45:03;92770.13;;;8.35;100.00
12475;BME280;6302;42.624;23.334;2024-03-02T07:47:30;92770.44;;;8.44;100.00
12475;BME280;6302;42.624;23.334;2024-03-02T07:49:57;92772.34;;;8.44;100.00
12475;BME280;6302;42.624;23.334;2024-03-02T07:52:23;92775.69;;;8.52;100.00
12475;BME280;6302;42.624;23.334;2024-03-02T07:54:50;92785.78;;;8.60;100.00
12475;BME280;6302;42.624;23.334;2024-03-02T07:57:17;92782.09;;;8.50;100.00
12475;BME280;6302;42.624;23.334;2024-03-02T07:59:44;92774.16;;;8.50;100.00
12475;BME280;6302;42.624;23.334;2024-03-02T08:02:12;92775.69;;;8.52;100.00
12475;BME280;6302;42.624;23.334;2024-03-02T08:04:40;92779.31;;;8.65;100.00
12475;BME280;6302;42.624;23.334;2024-03-02T08:07:07;92787.28;;;8.61;100.00
12475;BME280;6302;42.624;23.334;2024-03-02T08:09:34;92791.94;;;8.46;100.00
12475;BME280;6302;42.624;23.334;2024-03-02T08:12:01;92789.31;;;8.46;100.00
12475;BME280;6302;42.624;23.334;2024-03-02T08:14:28;92787.00;;;8.48;100.00
12475;BME280;6302;42.624;23.334;2024-03-02T08:16:55;92786.69;;;8.39;100.00
12475;BME280;6302;42.624;23.334;2024-03-02T08:19:23;92792.31;;;8.45;100.00
12475;BME280;6302;42.624;23.334;2024-03-02T08:21:49;92794.59;;;8.46;100.00
12475;BME280;6302;42.624;23.334;2024-03-02T08:24:24;92795.66;;;8.52;100.00
12475;BME280;6302;42.624;23.334;2024-03-02T08:26:53;92783.91;;;8.57;100.00
12475;BME280;6302;42.624;23.334;2024-03-02T08:29:30;92786.19;;;8.55;100.00
12475;BME280;6302;42.624;23.334;2024-03-02T08:32:13;92786.94;;;8.59;100.00
12475;BME280;6302;42.624;23.334;2024-03-02T08:34:50;92786.88;;;8.66;100.00
12475;BME280;6302;42.624;23.334;2024-03-02T08:37:22;92788.75;;;8.66;100.00
12475;BME280;6302;42.624;23.334;2024-03-02T08:39:52;92785.63;;;8.78;100.00
12475;BME280;6302;42.624;23.334;2024-03-02T08:42:21;92790.06;;;8.88;100.00
12475;BME280;6302;42.624;23.334;2024-03-02T08:44:48;92787.34;;;8.95;100.00
12475;BME280;6302;42.624;23.334;2024-03-02T08:47:20;92791.91;;;8.91;100.00
12475;BME280;6302;42.624;23.334;2024-03-02T08:50:09;92782.31;;;9.04;100.00
12475;BME280;6302;42.624;23.334;2024-03-02T08:52:40;92793.47;;;9.22;100.00
12475;BME280;6302;42.624;23.334;2024-03-02T08:55:17;92787.41;;;9.25;100.00
12475;BME280;6302;42.624;23.334;2024-03-02T08:57:45;92789.19;;;9.35;100.00
12475;BME280;6302;42.624;23.334;2024-03-02T09:00:13;92781.06;;;9.49;100.00
12475;BME280;6302;42.624;23.334;2024-03-02T09:02:39;92787.34;;;9.62;100.00
12475;BME280;6302;42.624;23.334;2024-03-02T09:05:27;92783.53;;;9.63;100.00
12475;BME280;6302;42.624;23.334;2024-03-02T09:07:54;92789.31;;;9.55;100.00
12475;BME280;6302;42.624;23.334;2024-03-02T09:10:20;92787.06;;;9.53;100.00
12475;BME280;6302;42.624;23.334;2024-03-02T09:12:47;92788.81;;;9.63;100.00
12475;BME280;6302;42.624;23.334;2024-03-02T09:15:15;92796.50;;;9.54;100.00
12475;BME280;6302;42.624;23.334;2024-03-02T09:17:42;92796.59;;;9.77;100.00
12475;BME280;6302;42.624;23.334;2024-03-02T09:20:10;92795.78;;;9.80;100.00
12475;BME280;6302;42.624;23.334;2024-03-02T09:22:41;92802.44;;;9.92;100.00
12475;BME280;6302;42.624;23.334;2024-03-02T09:25:08;92800.16;;;9.94;100.00
12475;BME280;6302;42.624;23.334;2024-03-02T09:27:36;92799.16;;;9.85;100.00
12475;BME280;6302;42.624;23.334;2024-03-02T09:30:04;92799.94;;;9.81;100.00
12475;BME280;6302;42.624;23.334;2024-03-02T09:32:31;92807.78;;;9.89;100.00
12475;BME280;6302;42.624;23.334;2024-03-02T09:34:57;92809.44;;;9.75;100.00
12475;BME280;6302;42.624;23.334;2024-03-02T09:37:24;92805.75;;;9.69;100.00
12475;BME280;6302;42.624;23.334;2024-03-02T09:39:53;92807.25;;;9.70;100.00
12475;BME280;6302;42.624;23.334;2024-03-02T09:42:20;92797.63;;;9.53;100.00
12475;BME280;6302;42.624;23.334;2024-03-02T09:44:47;92802.09;;;9.60;100.00
12475;BME280;6302;42.624;23.334;2024-03-02T09:47:14;92801.34;;;9.59;100.00
12475;BME280;6302;42.624;23.334;2024-03-02T09:49:41;92807.31;;;9.67;100.00
12475;BME280;6302;42.624;23.334;2024-03-02T09:52:10;92804.34;;;9.61;100.00
12475;BME280;6302;42.624;23.334;2024-03-02T09:54:36;92813.03;;;9.62;100.00
12475;BME280;6302;42.624;23.334;2024-03-02T09:57:05;92799.75;;;9.65;100.00
12475;BME280;6302;42.624;23.334;2024-03-02T09:59:31;92810.28;;;9.72;100.00
12475;BME280;6302;42.624;23.334;2024-03-02T10:01:59;92813.25;;;9.74;100.00
12475;BME280;6302;42.624;23.334;2024-03-02T10:04:26;92811.41;;;9.71;100.00
12475;BME280;6302;42.624;23.334;2024-03-02T10:07:09;92807.25;;;9.70;100.00
12475;BME280;6302;42.624;23.334;2024-03-02T10:09:37;92805.88;;;9.59;100.00
12475;BME280;6302;42.624;23.334;2024-03-02T10:12:07;92809.38;;;9.52;100.00
12475;BME280;6302;42.624;23.334;2024-03-02T10:14:34;92806.09;;;9.41;100.00
12475;BME280;6302;42.624;23.334;2024-03-02T10:17:04;92792.38;;;9.16;100.00
12475;BME280;6302;42.624;23.334;2024-03-02T10:19:32;92813.25;;;9.07;100.00
12475;BME280;6302;42.624;23.334;2024-03-02T10:22:00;92808.47;;;8.95;100.00
12475;BME280;6302;42.624;23.334;2024-03-02T10:24:35;92809.59;;;8.94;100.00
12475;BME280;6302;42.624;23.334;2024-03-02T10:27:08;92804.03;;;8.85;100.00
12475;BME280;6302;42.624;23.334;2024-03-02T10:29:39;92808.53;;;8.88;100.00
12475;BME280;6302;42.624;23.334;2024-03-02T10:32:09;92800.28;;;8.82;100.00
12475;BME280;6302;42.624;23.334;2024-03-02T10:34:36;92807.59;;;8.68;100.00
12475;BME280;6302;42.624;23.334;2024-03-02T10:37:03;92803.56;;;8.52;100.00
12475;BME280;6302;42.624;23.334;2024-03-02T10:39:31;92802.78;;;8.59;100.00
12475;BME280;6302;42.624;23.334;2024-03-02T10:42:02;92806.19;;;8.56;100.00
12475;BME280;6302;42.624;23.334;2024-03-02T10:44:31;92791.88;;;8.54;100.00
12475;BME280;6302;42.624;23.334;2024-03-02T10:47:00;92800.09;;;8.63;100.00
12475;BME280;6302;42.624;23.334;2024-03-02T10:49:29;92797.81;;;8.65;100.00
12475;BME280;6302;42.624;23.334;2024-03-02T10:51:56;92796.00;;;8.55;100.00
12475;BME280;6302;42.624;23.334;2024-03-02T10:54:22;92794.13;;;8.55;100.00
12475;BME280;6302;42.624;23.334;2024-03-02T10:56:53;92788.91;;;8.48;100.00
12475;BME280;6302;42.624;23.334;2024-03-02T10:59:26;92795.28;;;8.54;100.00
12475;BME280;6302;42.624;23.334;2024-03-02T11:01:56;92794.88;;;8.56;100.00
12475;BME280;6302;42.624;23.334;2024-03-02T11:04:24;92792.63;;;8.54;100.00
12475;BME280;6302;42.624;23.334;2024-03-02T11:06:52;92790.72;;;8.55;100.00
12475;BME280;6302;42.624;23.334;2024-03-02T11:09:22;92791.03;;;8.64;100.00
12475;BME280;6302;42.624;23.334;2024-03-02T11:11:55;92783.50;;;8.62;100.00
12475;BME280;6302;42.624;23.334;2024-03-02T11:14:30;92786.81;;;8.70;100.00
12475;BME280;6302;42.624;23.334;2024-03-02T11:17:00;92791.69;;;8.75;100.00
12475;BME280;6302;42.624;23.334;2024-03-02T11:19:29;92770.59;;;8.71;100.00
12475;BME280;6302;42.624;23.334;2024-03-02T11:21:57;92782.19;;;8.81;100.00
12475;BME280;6302;42.624;23.334;2024-03-02T11:24:31;92791.69;;;8.75;100.00
12475;BME280;6302;42.624;23.334;2024-03-02T11:27:01;92784.19;;;8.70;100.00
12475;BME280;6302;42.624;23.334;2024-03-02T11:29:44;92784.78;;;8.84;100.00
12475;BME280;6302;42.624;23.334;2024-03-02T11:32:17;92787.91;;;8.76;100.00
12475;BME280;6302;42.624;23.334;2024-03-02T11:34:46;92778.13;;;8.73;100.00
12475;BME280;6302;42.624;23.334;2024-03-02T11:37:13;92777.06;;;8.63;100.00
12475;BME280;6302;42.624;23.334;2024-03-02T11:39:42;92786.19;;;8.59;100.00
12475;BME280;6302;42.624;23.334;2024-03-02T11:42:11;92779.72;;;8.63;100.00
12475;BME280;6302;42.624;23.334;2024-03-02T11:44:41;92784.66;;;8.61;100.00
12475;BME280;6302;42.624;23.334;2024-03-02T11:47:11;92787.63;;;8.63;100.00
12475;BME280;6302;42.624;23.334;2024-03-02T11:49:42;92782.38;;;8.60;100.00
12475;BME280;6302;42.624;23.334;2024-03-02T11:52:11;92777.84;;;8.64;100.00
12475;BME280;6302;42.624;23.334;2024-03-02T11:54:40;92785.00;;;8.63;100.00
12475;BME280;6302;42.624;23.334;2024-03-02T11:57:12;92781.25;;;8.61;100.00
12475;BME280;6302;42.624;23.334;2024-03-02T11:59:39;92781.19;;;8.64;100.00
12475;BME280;6302;42.624;23.334;2024-03-02T12:02:06;92787.16;;;8.72;100.00
12475;BME280;6302;42.624;23.334;2024-03-02T12:04:34;92783.47;;;8.66;100.00
12475;BME280;6302;42.624;23.334;2024-03-02T12:07:02;92785.78;;;8.60;100.00
12475;BME280;6302;42.624;23.334;2024-03-02T12:09:30;92786.09;;;8.66;100.00
12475;BME280;6302;42.624;23.334;2024-03-02T12:12:04;92776.75;;;8.58;100.00
12475;BME280;6302;42.624;23.334;2024-03-02T12:14:32;92784.19;;;8.70;100.00
12475;BME280;6302;42.624;23.334;2024-03-02T12:16:59;92765.75;;;8.63;100.00
12475;BME280;6302;42.624;23.334;2024-03-02T12:19:26;92778.97;;;8.63;100.00
12475;BME280;6302;42.624;23.334;2024-03-02T12:21:55;92789.47;;;8.70;100.00
12475;BME280;6302;42.624;23.334;2024-03-02T12:24:24;92791.81;;;8.61;100.00
12475;BME280;6302;42.624;23.334;2024-03-02T12:26:51;92787.31;;;8.58;100.00
12475;BME280;6302;42.624;23.334;2024-03-02T12:29:19;92783.88;;;8.61;100.00
12475;BME280;6302;42.624;23.334;2024-03-02T12:31:47;92782.38;;;8.60;100.00
12475;BME280;6302;42.624;23.334;2024-03-02T12:34:16;92780.53;;;8.57;100.00
12475;BME280;6302;42.624;23.334;2024-03-02T12:36:43;92786.94;;;8.56;100.00
12475;BME280;6302;42.624;23.334;2024-03-02T12:39:13;92776.06;;;8.50;100.00
12475;BME280;6302;42.624;23.334;2024-03-02T12:41:41;92785.81;;;8.57;100.00
12475;BME280;6302;42.624;23.334;2024-03-02T12:44:08;92794.78;;;8.66;100.00
12475;BME280;6302;42.624;23.334;2024-03-02T12:46:35;92785.97;;;8.80;100.00
12475;BME280;6302;42.624;23.334;2024-03-02T12:49:08;92787.78;;;8.86;100.00
12475;BME280;6302;42.624;23.334;2024-03-02T12:51:35;92785.09;;;8.93;100.00
12475;BME280;6302;42.624;23.334;2024-03-02T12:54:02;92780.84;;;9.03;100.00
12475;BME280;6302;42.624;23.334;2024-03-02T12:56:31;92792.78;;;9.18;100.00
12475;BME280;6302;42.624;23.334;2024-03-02T12:58:59;92788.88;;;9.26;100.00
12475;BME280;6302;42.624;23.334;2024-03-02T13:01:26;92792.59;;;9.32;100.00
12475;BME280;6302;42.624;23.334;2024-03-02T13:03:53;92795.59;;;9.34;100.00
12475;BME280;6302;42.624;23.334;2024-03-02T13:06:21;92787.25;;;9.36;100.00
12475;BME280;6302;42.624;23.334;2024-03-02T13:08:48;92791.25;;;9.51;100.00